Barcelona, Spain
Current Conditions -  °F | °C
As of 12:00 AM on Saturday 29 Nov 2014 (Local Time) from LEBL Reporting Station
Few Clouds Few Clouds  
Wind Chill: 64°   Ceiling: Unl
Heat Index: 64°   Visibility: 5mi
Dew Point: 61°   Wind: 14mph
Humidity: 88%   Direction: 80°E
Pressure: 29.47"   Gusts: NA
Location:  41.39°N, 2.17°E
Report Text: LEBL 282300Z 08012KT 8000 FEW018 18/16 Q0998 NOSIG
Loading
Personal Weather Stations






























Interactive Weather Map New forecast layout! Learn more

10-Day Weather Forecast

Advertisements
Track Severe Weather on mobile